sensor_id;sensor_type;location;lat;lon;timestamp;P1;durP1;ratioP1;P2;durP2;ratioP2
2299;SDS011;1158;48.750;9.078;2023-05-06T00:02:16;6.43;;;5.13;;
2299;SDS011;1158;48.750;9.078;2023-05-06T00:04:44;6.93;;;5.37;;
2299;SDS011;1158;48.750;9.078;2023-05-06T00:07:11;7.00;;;5.27;;
2299;SDS011;1158;48.750;9.078;2023-05-06T00:09:38;9.17;;;5.63;;
2299;SDS011;1158;48.750;9.078;2023-05-06T00:12:05;5.33;;;4.83;;
2299;SDS011;1158;48.750;9.078;2023-05-06T00:14:31;9.30;;;5.43;;
2299;SDS011;1158;48.750;9.078;2023-05-06T00:16:58;11.30;;;5.30;;
2299;SDS011;1158;48.750;9.078;2023-05-06T00:19:25;6.50;;;4.90;;
2299;SDS011;1158;48.750;9.078;2023-05-06T00:21:53;7.37;;;5.60;;
2299;SDS011;1158;48.750;9.078;2023-05-06T00:24:20;6.30;;;4.97;;
2299;SDS011;1158;48.750;9.078;2023-05-06T00:26:46;7.40;;;5.30;;
2299;SDS011;1158;48.750;9.078;2023-05-06T00:29:13;5.90;;;4.57;;
2299;SDS011;1158;48.750;9.078;2023-05-06T00:31:40;8.27;;;5.20;;
2299;SDS011;1158;48.750;9.078;2023-05-06T00:34:07;6.43;;;4.70;;
2299;SDS011;1158;48.750;9.078;2023-05-06T00:36:34;9.00;;;6.00;;
2299;SDS011;1158;48.750;9.078;2023-05-06T00:39:02;6.70;;;4.80;;
2299;SDS011;1158;48.750;9.078;2023-05-06T00:41:30;10.70;;;4.73;;
2299;SDS011;1158;48.750;9.078;2023-05-06T00:43:57;6.17;;;5.20;;
2299;SDS011;1158;48.750;9.078;2023-05-06T00:46:24;6.30;;;4.90;;
2299;SDS011;1158;48.750;9.078;2023-05-06T00:48:51;6.27;;;4.90;;
2299;SDS011;1158;48.750;9.078;2023-05-06T00:51:18;9.33;;;5.57;;
2299;SDS011;1158;48.750;9.078;2023-05-06T00:53:44;6.60;;;5.63;;
2299;SDS011;1158;48.750;9.078;2023-05-06T00:56:13;8.07;;;5.13;;
2299;SDS011;1158;48.750;9.078;2023-05-06T00:58:41;9.30;;;6.10;;
2299;SDS011;1158;48.750;9.078;2023-05-06T01:01:09;7.30;;;5.50;;
2299;SDS011;1158;48.750;9.078;2023-05-06T01:03:36;7.67;;;5.17;;
2299;SDS011;1158;48.750;9.078;2023-05-06T01:06:06;8.23;;;5.33;;
2299;SDS011;1158;48.750;9.078;2023-05-06T01:08:43;10.80;;;6.00;;
2299;SDS011;1158;48.750;9.078;2023-05-06T01:11:18;7.90;;;5.73;;
2299;SDS011;1158;48.750;9.078;2023-05-06T01:13:55;9.60;;;6.60;;
2299;SDS011;1158;48.750;9.078;2023-05-06T01:16:26;8.47;;;5.67;;
2299;SDS011;1158;48.750;9.078;2023-05-06T01:18:54;7.53;;;6.20;;
2299;SDS011;1158;48.750;9.078;2023-05-06T01:21:23;8.70;;;6.00;;
2299;SDS011;1158;48.750;9.078;2023-05-06T01:24:00;7.27;;;5.53;;
2299;SDS011;1158;48.750;9.078;2023-05-06T01:26:27;9.63;;;5.70;;
2299;SDS011;1158;48.750;9.078;2023-05-06T01:28:54;8.67;;;5.30;;
2299;SDS011;1158;48.750;9.078;2023-05-06T01:31:23;7.80;;;5.27;;
2299;SDS011;1158;48.750;9.078;2023-05-06T01:34:04;10.93;;;5.47;;
2299;SDS011;1158;48.750;9.078;2023-05-06T01:36:40;8.00;;;5.37;;
2299;SDS011;1158;48.750;9.078;2023-05-06T01:39:15;7.20;;;5.70;;
2299;SDS011;1158;48.750;9.078;2023-05-06T01:41:43;8.43;;;5.50;;
2299;SDS011;1158;48.750;9.078;2023-05-06T01:44:13;6.67;;;5.37;;
2299;SDS011;1158;48.750;9.078;2023-05-06T01:46:42;9.33;;;5.97;;
2299;SDS011;1158;48.750;9.078;2023-05-06T01:49:10;6.67;;;5.00;;
2299;SDS011;1158;48.750;9.078;2023-05-06T01:51:37;7.80;;;5.90;;
2299;SDS011;1158;48.750;9.078;2023-05-06T01:54:04;5.90;;;4.97;;
2299;SDS011;1158;48.750;9.078;2023-05-06T01:56:32;6.60;;;5.50;;
2299;SDS011;1158;48.750;9.078;2023-05-06T01:58:59;11.67;;;5.67;;
2299;SDS011;1158;48.750;9.078;2023-05-06T02:01:26;6.20;;;5.20;;
2299;SDS011;1158;48.750;9.078;2023-05-06T02:03:53;8.10;;;5.73;;
2299;SDS011;1158;48.750;9.078;2023-05-06T02:06:19;7.50;;;5.80;;
2299;SDS011;1158;48.750;9.078;2023-05-06T02:08:47;5.10;;;4.33;;
2299;SDS011;1158;48.750;9.078;2023-05-06T02:11:14;5.67;;;5.00;;
2299;SDS011;1158;48.750;9.078;2023-05-06T02:13:42;9.50;;;5.80;;
2299;SDS011;1158;48.750;9.078;2023-05-06T02:16:08;7.57;;;5.40;;
2299;SDS011;1158;48.750;9.078;2023-05-06T02:18:36;5.60;;;4.97;;
2299;SDS011;1158;48.750;9.078;2023-05-06T02:21:02;9.70;;;5.43;;
2299;SDS011;1158;48.750;9.078;2023-05-06T02:23:29;8.63;;;5.13;;
2299;SDS011;1158;48.750;9.078;2023-05-06T02:25:56;8.07;;;5.40;;
2299;SDS011;1158;48.750;9.078;2023-05-06T02:28:23;7.13;;;5.27;;
2299;SDS011;1158;48.750;9.078;2023-05-06T02:30:54;8.53;;;5.03;;
2299;SDS011;1158;48.750;9.078;2023-05-06T02:33:21;9.93;;;6.00;;
2299;SDS011;1158;48.750;9.078;2023-05-06T02:35:48;6.83;;;5.20;;
2299;SDS011;1158;48.750;9.078;2023-05-06T02:38:15;6.37;;;5.77;;
2299;SDS011;1158;48.750;9.078;2023-05-06T02:40:42;7.20;;;5.17;;
2299;SDS011;1158;48.750;9.078;2023-05-06T02:43:09;9.30;;;6.00;;
2299;SDS011;1158;48.750;9.078;2023-05-06T02:45:36;7.43;;;6.07;;
2299;SDS011;1158;48.750;9.078;2023-05-06T02:48:04;7.10;;;5.60;;
2299;SDS011;1158;48.750;9.078;2023-05-06T02:50:31;5.60;;;5.00;;
2299;SDS011;1158;48.750;9.078;2023-05-06T02:52:58;6.20;;;5.20;;
2299;SDS011;1158;48.750;9.078;2023-05-06T02:55:25;5.70;;;5.10;;
2299;SDS011;1158;48.750;9.078;2023-05-06T02:57:52;9.73;;;5.43;;
2299;SDS011;1158;48.750;9.078;2023-05-06T03:00:19;9.93;;;4.90;;
2299;SDS011;1158;48.750;9.078;2023-05-06T03:02:45;8.47;;;5.83;;
2299;SDS011;1158;48.750;9.078;2023-05-06T03:05:13;11.80;;;5.47;;
2299;SDS011;1158;48.750;9.078;2023-05-06T03:07:40;9.17;;;5.90;;
2299;SDS011;1158;48.750;9.078;2023-05-06T03:10:07;9.10;;;5.80;;
2299;SDS011;1158;48.750;9.078;2023-05-06T03:12:35;8.87;;;6.00;;
2299;SDS011;1158;48.750;9.078;2023-05-06T03:15:01;10.70;;;6.53;;
2299;SDS011;1158;48.750;9.078;2023-05-06T03:17:28;9.47;;;6.33;;
2299;SDS011;1158;48.750;9.078;2023-05-06T03:19:55;12.40;;;8.53;;
2299;SDS011;1158;48.750;9.078;2023-05-06T03:22:23;12.33;;;8.30;;
2299;SDS011;1158;48.750;9.078;2023-05-06T03:24:50;9.87;;;7.40;;
2299;SDS011;1158;48.750;9.078;2023-05-06T03:27:17;10.90;;;7.93;;
2299;SDS011;1158;48.750;9.078;2023-05-06T03:29:43;12.60;;;7.50;;
2299;SDS011;1158;48.750;9.078;2023-05-06T03:32:10;12.20;;;7.13;;
2299;SDS011;1158;48.750;9.078;2023-05-06T03:34:37;11.57;;;8.40;;
2299;SDS011;1158;48.750;9.078;2023-05-06T03:37:04;16.23;;;8.10;;
2299;SDS011;1158;48.750;9.078;2023-05-06T03:39:32;10.77;;;8.97;;
2299;SDS011;1158;48.750;9.078;2023-05-06T03:41:58;14.60;;;9.43;;
2299;SDS011;1158;48.750;9.078;2023-05-06T03:44:26;16.40;;;8.93;;
2299;SDS011;1158;48.750;9.078;2023-05-06T03:46:53;9.53;;;8.53;;
2299;SDS011;1158;48.750;9.078;2023-05-06T03:49:19;10.03;;;7.70;;
2299;SDS011;1158;48.750;9.078;2023-05-06T03:51:46;11.57;;;7.83;;
2299;SDS011;1158;48.750;9.078;2023-05-06T03:54:13;9.50;;;8.07;;
2299;SDS011;1158;48.750;9.078;2023-05-06T03:56:41;11.20;;;7.90;;
2299;SDS011;1158;48.750;9.078;2023-05-06T03:59:08;10.10;;;7.77;;
2299;SDS011;1158;48.750;9.078;2023-05-06T04:01:34;9.20;;;6.77;;
2299;SDS011;1158;48.750;9.078;2023-05-06T04:04:01;9.93;;;6.60;;
2299;SDS011;1158;48.750;9.078;2023-05-06T04:06:28;8.67;;;7.30;;
2299;SDS011;1158;48.750;9.078;2023-05-06T04:08:55;10.60;;;7.03;;
2299;SDS011;1158;48.750;9.078;2023-05-06T04:11:21;7.80;;;6.83;;
2299;SDS011;1158;48.750;9.078;2023-05-06T04:13:50;11.10;;;7.70;;
2299;SDS011;1158;48.750;9.078;2023-05-06T04:16:17;9.60;;;6.67;;
2299;SDS011;1158;48.750;9.078;2023-05-06T04:18:44;8.63;;;7.33;;
2299;SDS011;1158;48.750;9.078;2023-05-06T04:21:11;12.73;;;8.27;;
2299;SDS011;1158;48.750;9.078;2023-05-06T04:23:38;11.80;;;7.63;;
2299;SDS011;1158;48.750;9.078;2023-05-06T04:26:05;12.63;;;8.67;;
2299;SDS011;1158;48.750;9.078;2023-05-06T04:28:32;11.10;;;8.07;;
2299;SDS011;1158;48.750;9.078;2023-05-06T04:31:00;13.57;;;9.40;;
2299;SDS011;1158;48.750;9.078;2023-05-06T04:33:27;10.57;;;8.90;;
2299;SDS011;1158;48.750;9.078;2023-05-06T04:35:54;11.63;;;8.90;;
2299;SDS011;1158;48.750;9.078;2023-05-06T04:38:21;16.03;;;9.47;;
2299;SDS011;1158;48.750;9.078;2023-05-06T04:40:49;11.33;;;9.97;;
2299;SDS011;1158;48.750;9.078;2023-05-06T04:43:16;10.53;;;9.37;;
2299;SDS011;1158;48.750;9.078;2023-05-06T04:45:43;13.87;;;8.90;;
2299;SDS011;1158;48.750;9.078;2023-05-06T04:48:15;13.70;;;9.27;;
2299;SDS011;1158;48.750;9.078;2023-05-06T04:50:42;10.07;;;7.73;;
2299;SDS011;1158;48.750;9.078;2023-05-06T04:53:10;10.10;;;8.23;;
2299;SDS011;1158;48.750;9.078;2023-05-06T04:55:37;13.50;;;8.67;;
2299;SDS011;1158;48.750;9.078;2023-05-06T04:58:04;13.00;;;8.93;;
2299;SDS011;1158;48.750;9.078;2023-05-06T05:00:31;10.17;;;9.03;;
2299;SDS011;1158;48.750;9.078;2023-05-06T05:02:58;9.87;;;8.10;;
2299;SDS011;1158;48.750;9.078;2023-05-06T05:05:27;13.70;;;8.23;;
2299;SDS011;1158;48.750;9.078;2023-05-06T05:07:54;11.33;;;8.40;;
2299;SDS011;1158;48.750;9.078;2023-05-06T05:10:21;12.23;;;8.47;;
2299;SDS011;1158;48.750;9.078;2023-05-06T05:12:47;12.37;;;8.80;;
2299;SDS011;1158;48.750;9.078;2023-05-06T05:15:14;12.13;;;9.37;;
2299;SDS011;1158;48.750;9.078;2023-05-06T05:17:41;12.63;;;9.20;;
2299;SDS011;1158;48.750;9.078;2023-05-06T05:20:08;11.23;;;8.00;;
2299;SDS011;1158;48.750;9.078;2023-05-06T05:22:36;23.13;;;9.33;;
2299;SDS011;1158;48.750;9.078;2023-05-06T05:25:03;10.30;;;8.37;;
2299;SDS011;1158;48.750;9.078;2023-05-06T05:27:31;10.40;;;7.70;;
2299;SDS011;1158;48.750;9.078;2023-05-06T05:29:59;11.27;;;8.80;;
2299;SDS011;1158;48.750;9.078;2023-05-06T05:32:26;13.50;;;9.63;;
2299;SDS011;1158;48.750;9.078;2023-05-06T05:34:52;11.30;;;8.70;;
2299;SDS011;1158;48.750;9.078;2023-05-06T05:37:19;12.00;;;8.90;;
2299;SDS011;1158;48.750;9.078;2023-05-06T05:39:47;8.10;;;7.33;;
2299;SDS011;1158;48.750;9.078;2023-05-06T05:42:14;7.90;;;6.50;;
2299;SDS011;1158;48.750;9.078;2023-05-06T05:44:42;7.87;;;6.47;;
2299;SDS011;1158;48.750;9.078;2023-05-06T05:47:08;6.57;;;4.77;;
2299;SDS011;1158;48.750;9.078;2023-05-06T05:49:35;6.47;;;4.60;;
2299;SDS011;1158;48.750;9.078;2023-05-06T05:52:02;8.27;;;4.37;;
2299;SDS011;1158;48.750;9.078;2023-05-06T05:54:29;5.70;;;4.00;;
2299;SDS011;1158;48.750;9.078;2023-05-06T05:56:57;6.23;;;3.23;;
2299;SDS011;1158;48.750;9.078;2023-05-06T05:59:23;4.53;;;3.20;;
2299;SDS011;1158;48.750;9.078;2023-05-06T06:01:50;5.93;;;3.50;;
2299;SDS011;1158;48.750;9.078;2023-05-06T06:04:17;3.70;;;3.33;;
2299;SDS011;1158;48.750;9.078;2023-05-06T06:06:45;4.07;;;2.80;;
2299;SDS011;1158;48.750;9.078;2023-05-06T06:09:12;5.00;;;2.80;;
2299;SDS011;1158;48.750;9.078;2023-05-06T06:11:38;4.50;;;2.70;;
2299;SDS011;1158;48.750;9.078;2023-05-06T06:14:06;4.63;;;3.00;;
2299;SDS011;1158;48.750;9.078;2023-05-06T06:16:34;4.27;;;2.70;;
2299;SDS011;1158;48.750;9.078;2023-05-06T06:19:01;7.43;;;3.00;;
2299;SDS011;1158;48.750;9.078;2023-05-06T06:21:28;3.13;;;2.50;;
2299;SDS011;1158;48.750;9.078;2023-05-06T06:23:55;6.13;;;2.93;;
2299;SDS011;1158;48.750;9.078;2023-05-06T06:26:21;6.60;;;2.30;;
2299;SDS011;1158;48.750;9.078;2023-05-06T06:28:48;8.90;;;2.93;;
2299;SDS011;1158;48.750;9.078;2023-05-06T06:31:16;5.07;;;2.90;;
2299;SDS011;1158;48.750;9.078;2023-05-06T06:33:43;5.47;;;2.27;;
2299;SDS011;1158;48.750;9.078;2023-05-06T06:36:10;4.03;;;2.10;;
2299;SDS011;1158;48.750;9.078;2023-05-06T06:38:37;4.43;;;2.20;;
2299;SDS011;1158;48.750;9.078;2023-05-06T06:41:04;4.70;;;1.73;;
2299;SDS011;1158;48.750;9.078;2023-05-06T06:43:30;3.70;;;2.30;;
2299;SDS011;1158;48.750;9.078;2023-05-06T06:45:57;5.57;;;2.10;;
2299;SDS011;1158;48.750;9.078;2023-05-06T06:48:26;5.57;;;2.07;;
2299;SDS011;1158;48.750;9.078;2023-05-06T06:50:52;2.87;;;1.83;;
2299;SDS011;1158;48.750;9.078;2023-05-06T06:53:19;3.50;;;1.83;;
2299;SDS011;1158;48.750;9.078;2023-05-06T06:55:46;3.60;;;2.10;;
2299;SDS011;1158;48.750;9.078;2023-05-06T06:58:13;3.27;;;1.50;;
2299;SDS011;1158;48.750;9.078;2023-05-06T07:00:39;3.27;;;2.00;;
2299;SDS011;1158;48.750;9.078;2023-05-06T07:03:06;2.97;;;1.70;;
2299;SDS011;1158;48.750;9.078;2023-05-06T07:05:34;2.70;;;1.77;;
2299;SDS011;1158;48.750;9.078;2023-05-06T07:08:01;5.00;;;2.00;;
2299;SDS011;1158;48.750;9.078;2023-05-06T07:10:28;5.87;;;2.10;;
2299;SDS011;1158;48.750;9.078;2023-05-06T07:12:55;3.00;;;1.67;;
2299;SDS011;1158;48.750;9.078;2023-05-06T07:15:22;4.37;;;2.07;;
2299;SDS011;1158;48.750;9.078;2023-05-06T07:17:49;2.07;;;1.40;;
2299;SDS011;1158;48.750;9.078;2023-05-06T07:20:16;6.57;;;2.07;;
2299;SDS011;1158;48.750;9.078;2023-05-06T07:22:44;2.50;;;1.47;;
2299;SDS011;1158;48.750;9.078;2023-05-06T07:25:11;4.30;;;1.80;;
2299;SDS011;1158;48.750;9.078;2023-05-06T07:27:38;2.83;;;1.80;;
2299;SDS011;1158;48.750;9.078;2023-05-06T07:30:05;6.77;;;1.57;;
2299;SDS011;1158;48.750;9.078;2023-05-06T07:32:33;2.00;;;1.30;;
2299;SDS011;1158;48.750;9.078;2023-05-06T07:35:00;3.30;;;1.67;;
2299;SDS011;1158;48.750;9.078;2023-05-06T07:37:26;2.70;;;1.30;;
2299;SDS011;1158;48.750;9.078;2023-05-06T07:39:55;2.90;;;1.47;;
2299;SDS011;1158;48.750;9.078;2023-05-06T07:42:22;3.37;;;1.63;;
2299;SDS011;1158;48.750;9.078;2023-05-06T07:44:49;2.60;;;1.20;;
2299;SDS011;1158;48.750;9.078;2023-05-06T07:47:16;3.30;;;1.33;;
2299;SDS011;1158;48.750;9.078;2023-05-06T07:49:51;4.73;;;1.60;;
2299;SDS011;1158;48.750;9.078;2023-05-06T07:52:18;3.53;;;1.20;;
2299;SDS011;1158;48.750;9.078;2023-05-06T07:54:45;3.40;;;1.77;;
2299;SDS011;1158;48.750;9.078;2023-05-06T07:57:13;3.23;;;1.43;;
2299;SDS011;1158;48.750;9.078;2023-05-06T07:59:39;3.47;;;1.40;;
2299;SDS011;1158;48.750;9.078;2023-05-06T08:02:07;2.23;;;1.23;;
2299;SDS011;1158;48.750;9.078;2023-05-06T08:04:34;3.20;;;1.67;;
2299;SDS011;1158;48.750;9.078;2023-05-06T08:07:02;3.60;;;1.40;;
2299;SDS011;1158;48.750;9.078;2023-05-06T08:09:31;3.40;;;1.53;;
2299;SDS011;1158;48.750;9.078;2023-05-06T08:11:57;4.10;;;1.80;;
2299;SDS011;1158;48.750;9.078;2023-05-06T08:14:26;5.30;;;1.77;;
2299;SDS011;1158;48.750;9.078;2023-05-06T08:16:52;3.27;;;1.30;;
2299;SDS011;1158;48.750;9.078;2023-05-06T08:19:20;3.57;;;1.70;;
2299;SDS011;1158;48.750;9.078;2023-05-06T08:21:48;2.93;;;1.50;;
2299;SDS011;1158;48.750;9.078;2023-05-06T08:24:15;2.63;;;1.40;;
2299;SDS011;1158;48.750;9.078;2023-05-06T08:26:42;2.67;;;1.30;;
2299;SDS011;1158;48.750;9.078;2023-05-06T08:29:09;5.97;;;1.40;;
2299;SDS011;1158;48.750;9.078;2023-05-06T08:31:37;3.80;;;1.23;;
2299;SDS011;1158;48.750;9.078;2023-05-06T08:34:04;1.60;;;0.90;;
2299;SDS011;1158;48.750;9.078;2023-05-06T08:36:31;2.33;;;1.23;;
2299;SDS011;1158;48.750;9.078;2023-05-06T08:38:57;2.00;;;1.10;;
2299;SDS011;1158;48.750;9.078;2023-05-06T08:41:24;3.70;;;1.17;;
2299;SDS011;1158;48.750;9.078;2023-05-06T08:43:54;3.80;;;1.50;;
2299;SDS011;1158;48.750;9.078;2023-05-06T08:46:23;4.33;;;1.97;;
2299;SDS011;1158;48.750;9.078;2023-05-06T08:48:52;4.80;;;1.50;;
2299;SDS011;1158;48.750;9.078;2023-05-06T08:51:19;2.47;;;1.40;;
2299;SDS011;1158;48.750;9.078;2023-05-06T08:53:52;4.80;;;1.73;;
2299;SDS011;1158;48.750;9.078;2023-05-06T08:56:20;3.53;;;1.77;;
2299;SDS011;1158;48.750;9.078;2023-05-06T08:58:53;2.30;;;1.70;;
2299;SDS011;1158;48.750;9.078;2023-05-06T09:01:22;6.37;;;1.87;;
2299;SDS011;1158;48.750;9.078;2023-05-06T09:03:50;6.13;;;2.97;;
2299;SDS011;1158;48.750;9.078;2023-05-06T09:06:18;3.50;;;1.93;;
2299;SDS011;1158;48.750;9.078;2023-05-06T09:08:45;6.00;;;1.93;;
2299;SDS011;1158;48.750;9.078;2023-05-06T09:11:19;2.67;;;1.70;;
2299;SDS011;1158;48.750;9.078;2023-05-06T09:13:50;4.10;;;1.70;;
2299;SDS011;1158;48.750;9.078;2023-05-06T09:16:31;7.50;;;3.33;;
2299;SDS011;1158;48.750;9.078;2023-05-06T09:18:58;10.20;;;5.10;;
2299;SDS011;1158;48.750;9.078;2023-05-06T09:21:30;3.00;;;1.53;;
2299;SDS011;1158;48.750;9.078;2023-05-06T09:23:59;2.10;;;1.30;;
2299;SDS011;1158;48.750;9.078;2023-05-06T09:26:27;8.83;;;3.80;;
2299;SDS011;1158;48.750;9.078;2023-05-06T09:28:54;3.90;;;1.80;;
2299;SDS011;1158;48.750;9.078;2023-05-06T09:31:22;5.10;;;1.90;;
2299;SDS011;1158;48.750;9.078;2023-05-06T09:33:49;3.60;;;1.70;;
2299;SDS011;1158;48.750;9.078;2023-05-06T09:36:16;2.77;;;1.60;;
2299;SDS011;1158;48.750;9.078;2023-05-06T09:38:55;4.20;;;1.20;;
2299;SDS011;1158;48.750;9.078;2023-05-06T09:41:37;3.93;;;1.60;;
2299;SDS011;1158;48.750;9.078;2023-05-06T09:44:04;2.23;;;1.30;;
2299;SDS011;1158;48.750;9.078;2023-05-06T09:46:31;2.80;;;1.27;;
2299;SDS011;1158;48.750;9.078;2023-05-06T09:48:58;2.80;;;1.00;;
2299;SDS011;1158;48.750;9.078;2023-05-06T09:51:25;4.40;;;1.40;;
2299;SDS011;1158;48.750;9.078;2023-05-06T09:53:54;2.93;;;1.20;;
2299;SDS011;1158;48.750;9.078;2023-05-06T09:56:21;4.73;;;1.37;;
2299;SDS011;1158;48.750;9.078;2023-05-06T09:58:49;2.73;;;1.23;;
2299;SDS011;1158;48.750;9.078;2023-05-06T10:01:17;13.70;;;3.80;;
2299;SDS011;1158;48.750;9.078;2023-05-06T10:03:44;11.50;;;3.77;;
2299;SDS011;1158;48.750;9.078;2023-05-06T10:06:11;8.70;;;2.80;;
2299;SDS011;1158;48.750;9.078;2023-05-06T10:08:39;3.50;;;1.70;;
2299;SDS011;1158;48.750;9.078;2023-05-06T10:11:11;2.83;;;1.60;;
2299;SDS011;1158;48.750;9.078;2023-05-06T10:13:40;9.53;;;2.17;;
2299;SDS011;1158;48.750;9.078;2023-05-06T10:16:08;12.67;;;2.87;;
2299;SDS011;1158;48.750;9.078;2023-05-06T10:18:35;33.57;;;7.73;;
2299;SDS011;1158;48.750;9.078;2023-05-06T10:21:04;7.03;;;1.97;;
2299;SDS011;1158;48.750;9.078;2023-05-06T10:23:42;5.70;;;2.10;;
2299;SDS011;1158;48.750;9.078;2023-05-06T10:26:11;2.23;;;1.10;;
2299;SDS011;1158;48.750;9.078;2023-05-06T10:28:40;2.83;;;1.50;;
2299;SDS011;1158;48.750;9.078;2023-05-06T10:31:09;4.73;;;1.70;;
2299;SDS011;1158;48.750;9.078;2023-05-06T10:33:37;5.57;;;1.57;;
2299;SDS011;1158;48.750;9.078;2023-05-06T10:36:08;3.30;;;1.87;;
2299;SDS011;1158;48.750;9.078;2023-05-06T10:38:40;6.47;;;1.30;;
2299;SDS011;1158;48.750;9.078;2023-05-06T10:41:08;2.10;;;1.40;;
2299;SDS011;1158;48.750;9.078;2023-05-06T10:43:38;2.40;;;1.37;;
2299;SDS011;1158;48.750;9.078;2023-05-06T10:46:06;2.50;;;1.47;;
2299;SDS011;1158;48.750;9.078;2023-05-06T10:48:35;6.03;;;1.50;;
2299;SDS011;1158;48.750;9.078;2023-05-06T10:51:22;5.00;;;1.50;;
2299;SDS011;1158;48.750;9.078;2023-05-06T10:53:54;2.80;;;1.13;;
2299;SDS011;1158;48.750;9.078;2023-05-06T10:56:33;2.00;;;1.10;;
2299;SDS011;1158;48.750;9.078;2023-05-06T10:59:01;2.23;;;1.00;;
2299;SDS011;1158;48.750;9.078;2023-05-06T11:01:32;5.27;;;2.87;;
2299;SDS011;1158;48.750;9.078;2023-05-06T11:04:01;6.43;;;3.53;;
2299;SDS011;1158;48.750;9.078;2023-05-06T11:06:40;2.70;;;1.50;;
2299;SDS011;1158;48.750;9.078;2023-05-06T11:09:17;2.30;;;1.30;;
2299;SDS011;1158;48.750;9.078;2023-05-06T11:11:46;2.30;;;1.27;;
2299;SDS011;1158;48.750;9.078;2023-05-06T11:14:25;2.90;;;1.20;;
2299;SDS011;1158;48.750;9.078;2023-05-06T11:16:53;3.60;;;1.27;;
2299;SDS011;1158;48.750;9.078;2023-05-06T11:19:22;3.67;;;1.47;;
2299;SDS011;1158;48.750;9.078;2023-05-06T11:21:50;4.53;;;2.80;;
2299;SDS011;1158;48.750;9.078;2023-05-06T11:24:21;5.30;;;3.63;;
2299;SDS011;1158;48.750;9.078;2023-05-06T11:26:50;3.23;;;1.73;;
2299;SDS011;1158;48.750;9.078;2023-05-06T11:29:17;4.77;;;1.50;;
2299;SDS011;1158;48.750;9.078;2023-05-06T11:31:45;2.10;;;1.47;;
2299;SDS011;1158;48.750;9.078;2023-05-06T11:34:13;2.93;;;1.37;;
2299;SDS011;1158;48.750;9.078;2023-05-06T11:36:52;3.10;;;1.47;;
2299;SDS011;1158;48.750;9.078;2023-05-06T11:39:23;2.10;;;1.20;;
2299;SDS011;1158;48.750;9.078;2023-05-06T11:41:55;2.50;;;1.40;;
2299;SDS011;1158;48.750;9.078;2023-05-06T11:44:24;2.20;;;1.50;;
2299;SDS011;1158;48.750;9.078;2023-05-06T11:46:54;2.30;;;1.30;;
2299;SDS011;1158;48.750;9.078;2023-05-06T11:49:22;2.63;;;1.53;;
2299;SDS011;1158;48.750;9.078;2023-05-06T11:51:50;3.63;;;1.67;;
2299;SDS011;1158;48.750;9.078;2023-05-06T11:54:16;3.83;;;1.50;;
2299;SDS011;1158;48.750;9.078;2023-05-06T11:56:47;3.47;;;1.70;;
2299;SDS011;1158;48.750;9.078;2023-05-06T11:59:17;2.77;;;1.20;;
2299;SDS011;1158;48.750;9.078;2023-05-06T12:01:52;2.97;;;1.60;;
2299;SDS011;1158;48.750;9.078;2023-05-06T12:04:19;2.10;;;1.30;;
2299;SDS011;1158;48.750;9.078;2023-05-06T12:06:46;3.13;;;1.53;;
2299;SDS011;1158;48.750;9.078;2023-05-06T12:09:13;2.10;;;1.37;;
2299;SDS011;1158;48.750;9.078;2023-05-06T12:11:40;2.93;;;1.43;;
2299;SDS011;1158;48.750;9.078;2023-05-06T12:14:09;3.17;;;1.17;;
2299;SDS011;1158;48.750;9.078;2023-05-06T12:16:37;3.97;;;1.50;;
2299;SDS011;1158;48.750;9.078;2023-05-06T12:19:04;2.20;;;1.70;;
2299;SDS011;1158;48.750;9.078;2023-05-06T12:21:31;2.80;;;1.23;;
2299;SDS011;1158;48.750;9.078;2023-05-06T12:24:02;4.70;;;1.50;;
2299;SDS011;1158;48.750;9.078;2023-05-06T12:26:40;1.90;;;1.23;;
2299;SDS011;1158;48.750;9.078;2023-05-06T12:29:08;3.60;;;1.60;;
2299;SDS011;1158;48.750;9.078;2023-05-06T12:31:38;4.83;;;2.07;;
2299;SDS011;1158;48.750;9.078;2023-05-06T12:34:05;3.10;;;1.50;;
2299;SDS011;1158;48.750;9.078;2023-05-06T12:36:31;5.17;;;1.77;;
2299;SDS011;1158;48.750;9.078;2023-05-06T12:39:04;4.37;;;1.87;;
2299;SDS011;1158;48.750;9.078;2023-05-06T12:41:34;2.70;;;1.47;;
2299;SDS011;1158;48.750;9.078;2023-05-06T12:44:02;2.67;;;1.80;;
2299;SDS011;1158;48.750;9.078;2023-05-06T12:46:50;2.53;;;1.73;;
2299;SDS011;1158;48.750;9.078;2023-05-06T12:49:17;3.90;;;1.77;;
2299;SDS011;1158;48.750;9.078;2023-05-06T12:51:44;3.50;;;1.80;;
2299;SDS011;1158;48.750;9.078;2023-05-06T12:56:55;2.20;;;1.60;;
2299;SDS011;1158;48.750;9.078;2023-05-06T12:59:23;7.03;;;3.50;;
2299;SDS011;1158;48.750;9.078;2023-05-06T13:01:51;5.73;;;2.00;;
2299;SDS011;1158;48.750;9.078;2023-05-06T13:04:18;4.00;;;2.10;;
2299;SDS011;1158;48.750;9.078;2023-05-06T13:06:44;4.60;;;2.10;;
2299;SDS011;1158;48.750;9.078;2023-05-06T13:09:11;4.10;;;2.00;;
2299;SDS011;1158;48.750;9.078;2023-05-06T13:11:38;4.50;;;2.30;;
2299;SDS011;1158;48.750;9.078;2023-05-06T13:14:04;2.93;;;1.80;;
2299;SDS011;1158;48.750;9.078;2023-05-06T13:16:31;3.97;;;2.00;;
2299;SDS011;1158;48.750;9.078;2023-05-06T13:19:02;3.50;;;1.40;;
2299;SDS011;1158;48.750;9.078;2023-05-06T13:21:29;2.87;;;1.70;;
2299;SDS011;1158;48.750;9.078;2023-05-06T13:23:56;4.00;;;2.37;;
2299;SDS011;1158;48.750;9.078;2023-05-06T13:26:23;3.50;;;2.00;;
2299;SDS011;1158;48.750;9.078;2023-05-06T13:28:50;4.23;;;2.13;;
2299;SDS011;1158;48.750;9.078;2023-05-06T13:31:17;3.33;;;1.90;;
2299;SDS011;1158;48.750;9.078;2023-05-06T13:33:45;5.53;;;1.90;;
2299;SDS011;1158;48.750;9.078;2023-05-06T13:36:14;4.53;;;2.17;;
2299;SDS011;1158;48.750;9.078;2023-05-06T13:38:41;3.33;;;2.03;;
2299;SDS011;1158;48.750;9.078;2023-05-06T13:41:07;4.67;;;2.20;;
2299;SDS011;1158;48.750;9.078;2023-05-06T13:43:34;4.33;;;2.13;;
2299;SDS011;1158;48.750;9.078;2023-05-06T13:46:01;4.60;;;2.20;;
2299;SDS011;1158;48.750;9.078;2023-05-06T13:48:27;4.23;;;2.23;;
2299;SDS011;1158;48.750;9.078;2023-05-06T13:50:54;3.20;;;1.87;;
2299;SDS011;1158;48.750;9.078;2023-05-06T13:53:22;4.20;;;1.97;;
2299;SDS011;1158;48.750;9.078;2023-05-06T13:55:49;2.67;;;1.80;;
2299;SDS011;1158;48.750;9.078;2023-05-06T13:58:16;3.77;;;2.33;;
2299;SDS011;1158;48.750;9.078;2023-05-06T14:00:43;5.23;;;2.30;;
2299;SDS011;1158;48.750;9.078;2023-05-06T14:03:09;4.07;;;2.30;;
2299;SDS011;1158;48.750;9.078;2023-05-06T14:05:36;6.57;;;2.20;;
2299;SDS011;1158;48.750;9.078;2023-05-06T14:08:03;4.30;;;2.40;;
2299;SDS011;1158;48.750;9.078;2023-05-06T14:10:31;4.67;;;2.33;;
2299;SDS011;1158;48.750;9.078;2023-05-06T14:12:58;5.27;;;2.00;;
2299;SDS011;1158;48.750;9.078;2023-05-06T14:15:25;3.17;;;2.10;;
2299;SDS011;1158;48.750;9.078;2023-05-06T14:17:51;2.77;;;2.10;;
2299;SDS011;1158;48.750;9.078;2023-05-06T14:20:18;3.47;;;2.00;;
2299;SDS011;1158;48.750;9.078;2023-05-06T14:22:45;4.97;;;2.10;;
2299;SDS011;1158;48.750;9.078;2023-05-06T14:25:12;4.40;;;1.77;;
2299;SDS011;1158;48.750;9.078;2023-05-06T14:27:41;2.20;;;1.60;;
2299;SDS011;1158;48.750;9.078;2023-05-06T14:30:09;3.07;;;1.80;;
2299;SDS011;1158;48.750;9.078;2023-05-06T14:32:36;4.73;;;2.07;;
2299;SDS011;1158;48.750;9.078;2023-05-06T14:35:03;2.83;;;1.40;;
2299;SDS011;1158;48.750;9.078;2023-05-06T14:37:31;4.37;;;2.13;;
2299;SDS011;1158;48.750;9.078;2023-05-06T14:39:58;3.77;;;2.10;;
2299;SDS011;1158;48.750;9.078;2023-05-06T14:42:24;2.90;;;2.10;;
2299;SDS011;1158;48.750;9.078;2023-05-06T14:44:52;6.83;;;3.47;;
2299;SDS011;1158;48.750;9.078;2023-05-06T14:47:19;3.70;;;2.50;;
2299;SDS011;1158;48.750;9.078;2023-05-06T14:49:46;3.03;;;1.67;;
2299;SDS011;1158;48.750;9.078;2023-05-06T14:52:13;2.70;;;1.80;;
2299;SDS011;1158;48.750;9.078;2023-05-06T14:54:40;5.63;;;1.63;;
2299;SDS011;1158;48.750;9.078;2023-05-06T14:57:08;3.63;;;1.80;;
2299;SDS011;1158;48.750;9.078;2023-05-06T14:59:35;3.57;;;2.00;;
2299;SDS011;1158;48.750;9.078;2023-05-06T15:02:05;3.40;;;1.93;;
2299;SDS011;1158;48.750;9.078;2023-05-06T15:04:33;2.70;;;1.70;;
2299;SDS011;1158;48.750;9.078;2023-05-06T15:07:00;3.03;;;1.60;;
2299;SDS011;1158;48.750;9.078;2023-05-06T15:09:27;2.50;;;2.00;;
2299;SDS011;1158;48.750;9.078;2023-05-06T15:11:54;3.00;;;2.00;;
2299;SDS011;1158;48.750;9.078;2023-05-06T15:14:20;3.23;;;1.73;;
2299;SDS011;1158;48.750;9.078;2023-05-06T15:16:47;3.67;;;1.60;;
2299;SDS011;1158;48.750;9.078;2023-05-06T15:19:15;2.20;;;1.60;;
2299;SDS011;1158;48.750;9.078;2023-05-06T15:21:42;4.20;;;1.70;;